sensor_id;sensor_type;location;lat;lon;timestamp;pressure;altitude;pressure_sealevel;temperature;humidity
69405;BME280;57084;52.046;5.632;2023-01-04T00:00:00;101790;;;9.3;74.4
69405;BME280;57084;52.046;5.632;2023-01-04T00:01:00;101780;;;9.3;74.4
69405;BME280;57084;52.046;5.632;2023-01-04T00:02:00;101780;;;9.3;74.4
69405;BME280;57084;52.046;5.632;2023-01-04T00:03:00;101780;;;9.4;74.3
69405;BME280;57084;52.046;5.632;2023-01-04T00:04:00;101780;;;9.4;74.3
69405;BME280;57084;52.046;5.632;2023-01-04T00:05:00;101780;;;9.3;74.4
69405;BME280;57084;52.046;5.632;2023-01-04T00:06:01;101780;;;9.3;74.4
69405;BME280;57084;52.046;5.632;2023-01-04T00:07:00;101770;;;9.4;74.4
69405;BME280;57084;52.046;5.632;2023-01-04T00:08:00;101770;;;9.4;74.4
69405;BME280;57084;52.046;5.632;2023-01-04T00:09:00;101770;;;9.4;74.5
69405;BME280;57084;52.046;5.632;2023-01-04T00:10:00;101770;;;9.4;74.5
69405;BME280;57084;52.046;5.632;2023-01-04T00:11:00;101760;;;9.3;74.5
69405;BME280;57084;52.046;5.632;2023-01-04T00:12:00;101760;;;9.3;74.5
69405;BME280;57084;52.046;5.632;2023-01-04T00:13:00;101760;;;9.4;74.5
69405;BME280;57084;52.046;5.632;2023-01-04T00:14:00;101760;;;9.4;74.5
69405;BME280;57084;52.046;5.632;2023-01-04T00:15:00;101740;;;9.3;74.6
69405;BME280;57084;52.046;5.632;2023-01-04T00:16:02;101740;;;9.3;74.6
69405;BME280;57084;52.046;5.632;2023-01-04T00:17:00;101740;;;9.3;74.6
69405;BME280;57084;52.046;5.632;2023-01-04T00:18:00;101740;;;9.3;74.6
69405;BME280;57084;52.046;5.632;2023-01-04T00:19:00;101740;;;9.3;74.7
69405;BME280;57084;52.046;5.632;2023-01-04T00:20:00;101740;;;9.3;74.7
69405;BME280;57084;52.046;5.632;2023-01-04T00:21:05;101750;;;9.3;74.7
69405;BME280;57084;52.046;5.632;2023-01-04T00:22:00;101750;;;9.3;74.7
69405;BME280;57084;52.046;5.632;2023-01-04T00:23:00;101740;;;9.4;74.7
69405;BME280;57084;52.046;5.632;2023-01-04T00:24:00;101740;;;9.4;74.7
69405;BME280;57084;52.046;5.632;2023-01-04T00:25:00;101730;;;9.3;74.8
69405;BME280;57084;52.046;5.632;2023-01-04T00:26:00;101730;;;9.3;74.8
69405;BME280;57084;52.046;5.632;2023-01-04T00:27:00;101740;;;9.3;74.8
69405;BME280;57084;52.046;5.632;2023-01-04T00:28:00;101740;;;9.3;74.8
69405;BME280;57084;52.046;5.632;2023-01-04T00:29:01;101730;;;9.3;75.0
69405;BME280;57084;52.046;5.632;2023-01-04T00:30:00;101730;;;9.3;75.0
69405;BME280;57084;52.046;5.632;2023-01-04T00:31:01;101730;;;9.3;75.0
69405;BME280;57084;52.046;5.632;2023-01-04T00:32:00;101730;;;9.3;75.0
69405;BME280;57084;52.046;5.632;2023-01-04T00:33:00;101730;;;9.3;74.9
69405;BME280;57084;52.046;5.632;2023-01-04T00:34:01;101730;;;9.3;74.9
69405;BME280;57084;52.046;5.632;2023-01-04T00:35:00;101710;;;9.3;75.1
69405;BME280;57084;52.046;5.632;2023-01-04T00:36:00;101710;;;9.3;75.1
69405;BME280;57084;52.046;5.632;2023-01-04T00:37:00;101710;;;9.3;75.1
69405;BME280;57084;52.046;5.632;2023-01-04T00:38:00;101710;;;9.3;75.1
69405;BME280;57084;52.046;5.632;2023-01-04T00:39:00;101710;;;9.3;75.2
69405;BME280;57084;52.046;5.632;2023-01-04T00:40:00;101710;;;9.3;75.2
69405;BME280;57084;52.046;5.632;2023-01-04T00:41:00;101690;;;9.3;75.3
69405;BME280;57084;52.046;5.632;2023-01-04T00:42:00;101690;;;9.3;75.3
69405;BME280;57084;52.046;5.632;2023-01-04T00:43:00;101700;;;9.3;75.2
69405;BME280;57084;52.046;5.632;2023-01-04T00:44:00;101700;;;9.3;75.2
69405;BME280;57084;52.046;5.632;2023-01-04T00:45:00;101690;;;9.3;75.4
69405;BME280;57084;52.046;5.632;2023-01-04T00:46:00;101690;;;9.3;75.4
69405;BME280;57084;52.046;5.632;2023-01-04T00:47:00;101690;;;9.3;75.3
69405;BME280;57084;52.046;5.632;2023-01-04T00:48:00;101690;;;9.3;75.3
69405;BME280;57084;52.046;5.632;2023-01-04T00:49:00;101680;;;9.3;75.4
69405;BME280;57084;52.046;5.632;2023-01-04T00:50:00;101680;;;9.3;75.4
69405;BME280;57084;52.046;5.632;2023-01-04T00:51:00;101680;;;9.3;75.4
69405;BME280;57084;52.046;5.632;2023-01-04T00:52:00;101680;;;9.3;75.4
69405;BME280;57084;52.046;5.632;2023-01-04T00:53:00;101670;;;9.3;75.4
69405;BME280;57084;52.046;5.632;2023-01-04T00:54:01;101670;;;9.3;75.4
69405;BME280;57084;52.046;5.632;2023-01-04T00:55:00;101670;;;9.3;75.6
69405;BME280;57084;52.046;5.632;2023-01-04T00:56:00;101670;;;9.3;75.6
69405;BME280;57084;52.046;5.632;2023-01-04T00:57:00;101670;;;9.3;75.5
69405;BME280;57084;52.046;5.632;2023-01-04T00:58:00;101670;;;9.3;75.5
69405;BME280;57084;52.046;5.632;2023-01-04T00:59:01;101660;;;9.3;75.6
69405;BME280;57084;52.046;5.632;2023-01-04T01:00:00;101660;;;9.3;75.6
69405;BME280;57084;52.046;5.632;2023-01-04T01:01:03;101660;;;9.3;75.7
69405;BME280;57084;52.046;5.632;2023-01-04T01:02:00;101660;;;9.3;75.7
69405;BME280;57084;52.046;5.632;2023-01-04T01:03:00;101660;;;9.3;75.7
69405;BME280;57084;52.046;5.632;2023-01-04T01:04:01;101660;;;9.3;75.7
69405;BME280;57084;52.046;5.632;2023-01-04T01:05:00;101660;;;9.3;75.9
69405;BME280;57084;52.046;5.632;2023-01-04T01:06:00;101660;;;9.3;75.9
69405;BME280;57084;52.046;5.632;2023-01-04T01:07:00;101640;;;9.3;75.8
69405;BME280;57084;52.046;5.632;2023-01-04T01:08:00;101640;;;9.3;75.8
69405;BME280;57084;52.046;5.632;2023-01-04T01:09:00;101640;;;9.3;75.9
69405;BME280;57084;52.046;5.632;2023-01-04T01:10:00;101640;;;9.3;75.9
69405;BME280;57084;52.046;5.632;2023-01-04T01:11:02;101640;;;9.3;76.0
69405;BME280;57084;52.046;5.632;2023-01-04T01:12:00;101640;;;9.3;76.0
69405;BME280;57084;52.046;5.632;2023-01-04T01:13:00;101630;;;9.3;75.9
69405;BME280;57084;52.046;5.632;2023-01-04T01:14:00;101630;;;9.3;75.9
69405;BME280;57084;52.046;5.632;2023-01-04T01:15:00;101620;;;9.3;76.0
69405;BME280;57084;52.046;5.632;2023-01-04T01:16:01;101620;;;9.3;76.0
69405;BME280;57084;52.046;5.632;2023-01-04T01:17:00;101620;;;9.3;76.0
69405;BME280;57084;52.046;5.632;2023-01-04T01:18:00;101620;;;9.3;76.0
69405;BME280;57084;52.046;5.632;2023-01-04T01:19:00;101620;;;9.4;76.1
69405;BME280;57084;52.046;5.632;2023-01-04T01:20:00;101620;;;9.4;76.1
69405;BME280;57084;52.046;5.632;2023-01-04T01:21:02;101610;;;9.4;76.1
69405;BME280;57084;52.046;5.632;2023-01-04T01:22:00;101610;;;9.4;76.1
69405;BME280;57084;52.046;5.632;2023-01-04T01:23:00;101610;;;9.4;76.1
69405;BME280;57084;52.046;5.632;2023-01-04T01:24:00;101610;;;9.4;76.1
69405;BME280;57084;52.046;5.632;2023-01-04T01:25:00;101610;;;9.4;76.2
69405;BME280;57084;52.046;5.632;2023-01-04T01:26:00;101610;;;9.4;76.2
69405;BME280;57084;52.046;5.632;2023-01-04T01:27:00;101610;;;9.4;76.2
69405;BME280;57084;52.046;5.632;2023-01-04T01:28:00;101610;;;9.4;76.2
69405;BME280;57084;52.046;5.632;2023-01-04T01:29:00;101610;;;9.4;76.3
69405;BME280;57084;52.046;5.632;2023-01-04T01:30:00;101610;;;9.4;76.3
69405;BME280;57084;52.046;5.632;2023-01-04T01:31:04;101610;;;9.4;76.3
69405;BME280;57084;52.046;5.632;2023-01-04T01:32:00;101610;;;9.4;76.3
69405;BME280;57084;52.046;5.632;2023-01-04T01:33:00;101590;;;9.4;76.3
69405;BME280;57084;52.046;5.632;2023-01-04T01:34:00;101590;;;9.4;76.3
69405;BME280;57084;52.046;5.632;2023-01-04T01:35:00;101590;;;9.4;76.5
69405;BME280;57084;52.046;5.632;2023-01-04T01:36:00;101590;;;9.4;76.5
69405;BME280;57084;52.046;5.632;2023-01-04T01:37:00;101590;;;9.4;76.5
69405;BME280;57084;52.046;5.632;2023-01-04T01:38:00;101590;;;9.4;76.5
69405;BME280;57084;52.046;5.632;2023-01-04T01:39:00;101580;;;9.4;76.6
69405;BME280;57084;52.046;5.632;2023-01-04T01:40:00;101580;;;9.4;76.6
69405;BME280;57084;52.046;5.632;2023-01-04T01:41:00;101590;;;9.4;76.7
69405;BME280;57084;52.046;5.632;2023-01-04T01:42:00;101590;;;9.4;76.7
69405;BME280;57084;52.046;5.632;2023-01-04T01:43:00;101590;;;9.4;76.6
69405;BME280;57084;52.046;5.632;2023-01-04T01:44:01;101590;;;9.4;76.6
69405;BME280;57084;52.046;5.632;2023-01-04T01:45:01;101590;;;9.4;76.7
69405;BME280;57084;52.046;5.632;2023-01-04T01:46:00;101590;;;9.4;76.7
69405;BME280;57084;52.046;5.632;2023-01-04T01:47:00;101580;;;9.4;76.6
69405;BME280;57084;52.046;5.632;2023-01-04T01:48:02;101580;;;9.4;76.6
69405;BME280;57084;52.046;5.632;2023-01-04T01:49:01;101580;;;9.5;76.7
69405;BME280;57084;52.046;5.632;2023-01-04T01:50:00;101580;;;9.5;76.7
69405;BME280;57084;52.046;5.632;2023-01-04T01:51:00;101580;;;9.4;76.8
69405;BME280;57084;52.046;5.632;2023-01-04T01:52:00;101580;;;9.4;76.8
69405;BME280;57084;52.046;5.632;2023-01-04T01:53:00;101570;;;9.4;76.7
69405;BME280;57084;52.046;5.632;2023-01-04T01:54:01;101570;;;9.4;76.7
69405;BME280;57084;52.046;5.632;2023-01-04T01:55:02;101590;;;9.5;76.9
69405;BME280;57084;52.046;5.632;2023-01-04T01:56:00;101590;;;9.5;76.9
69405;BME280;57084;52.046;5.632;2023-01-04T01:57:00;101570;;;9.5;76.9
69405;BME280;57084;52.046;5.632;2023-01-04T01:58:00;101570;;;9.5;76.9
69405;BME280;57084;52.046;5.632;2023-01-04T01:59:00;101570;;;9.5;76.9
69405;BME280;57084;52.046;5.632;2023-01-04T02:00:02;101570;;;9.5;76.9
69405;BME280;57084;52.046;5.632;2023-01-04T02:01:00;101570;;;9.5;77.0
69405;BME280;57084;52.046;5.632;2023-01-04T02:02:00;101570;;;9.5;77.0
69405;BME280;57084;52.046;5.632;2023-01-04T02:03:03;101580;;;9.5;77.0
69405;BME280;57084;52.046;5.632;2023-01-04T02:04:00;101580;;;9.5;77.0
69405;BME280;57084;52.046;5.632;2023-01-04T02:05:00;101580;;;9.5;77.1
69405;BME280;57084;52.046;5.632;2023-01-04T02:06:00;101580;;;9.5;77.1
69405;BME280;57084;52.046;5.632;2023-01-04T02:07:00;101570;;;9.5;77.1
69405;BME280;57084;52.046;5.632;2023-01-04T02:08:00;101570;;;9.5;77.1
69405;BME280;57084;52.046;5.632;2023-01-04T02:09:00;101570;;;9.5;77.0
69405;BME280;57084;52.046;5.632;2023-01-04T02:10:00;101570;;;9.5;77.0
69405;BME280;57084;52.046;5.632;2023-01-04T02:11:00;101570;;;9.5;77.2
69405;BME280;57084;52.046;5.632;2023-01-04T02:12:00;101570;;;9.5;77.2
69405;BME280;57084;52.046;5.632;2023-01-04T02:13:01;101570;;;9.5;77.1
69405;BME280;57084;52.046;5.632;2023-01-04T02:14:00;101570;;;9.5;77.1
69405;BME280;57084;52.046;5.632;2023-01-04T02:15:00;101570;;;9.6;77.3
69405;BME280;57084;52.046;5.632;2023-01-04T02:16:05;101570;;;9.6;77.3
69405;BME280;57084;52.046;5.632;2023-01-04T02:17:03;101560;;;9.6;77.3
69405;BME280;57084;52.046;5.632;2023-01-04T02:18:01;101560;;;9.6;77.3
69405;BME280;57084;52.046;5.632;2023-01-04T02:19:10;101560;;;9.6;77.2
69405;BME280;57084;52.046;5.632;2023-01-04T02:20:13;101560;;;9.6;77.2
69405;BME280;57084;52.046;5.632;2023-01-04T02:21:01;101560;;;9.6;77.4
69405;BME280;57084;52.046;5.632;2023-01-04T02:22:06;101560;;;9.6;77.4
69405;BME280;57084;52.046;5.632;2023-01-04T02:23:14;101550;;;9.6;77.3
69405;BME280;57084;52.046;5.632;2023-01-04T02:24:13;101550;;;9.6;77.3
69405;BME280;57084;52.046;5.632;2023-01-04T02:25:05;101550;;;9.6;77.4
69405;BME280;57084;52.046;5.632;2023-01-04T02:26:07;101550;;;9.6;77.4
69405;BME280;57084;52.046;5.632;2023-01-04T02:27:20;101560;;;9.6;77.4
69405;BME280;57084;52.046;5.632;2023-01-04T02:28:00;101560;;;9.6;77.4
69405;BME280;57084;52.046;5.632;2023-01-04T02:30:13;101550;;;9.6;77.3
69405;BME280;57084;52.046;5.632;2023-01-04T02:31:11;101550;;;9.6;77.5
69405;BME280;57084;52.046;5.632;2023-01-04T02:32:00;101550;;;9.6;77.5
69405;BME280;57084;52.046;5.632;2023-01-04T02:33:04;101550;;;9.6;77.4
69405;BME280;57084;52.046;5.632;2023-01-04T02:34:02;101550;;;9.6;77.4
69405;BME280;57084;52.046;5.632;2023-01-04T02:35:02;101540;;;9.7;77.6
69405;BME280;57084;52.046;5.632;2023-01-04T02:36:02;101540;;;9.7;77.6
69405;BME280;57084;52.046;5.632;2023-01-04T02:37:02;101550;;;9.7;77.6
69405;BME280;57084;52.046;5.632;2023-01-04T02:38:02;101550;;;9.7;77.6
69405;BME280;57084;52.046;5.632;2023-01-04T02:39:02;101550;;;9.7;77.5
69405;BME280;57084;52.046;5.632;2023-01-04T02:40:02;101550;;;9.7;77.5
69405;BME280;57084;52.046;5.632;2023-01-04T02:41:02;101530;;;9.7;77.7
69405;BME280;57084;52.046;5.632;2023-01-04T02:42:04;101530;;;9.7;77.7
69405;BME280;57084;52.046;5.632;2023-01-04T02:43:02;101530;;;9.7;77.7
69405;BME280;57084;52.046;5.632;2023-01-04T02:44:06;101530;;;9.7;77.7
69405;BME280;57084;52.046;5.632;2023-01-04T02:45:01;101530;;;9.7;77.8
69405;BME280;57084;52.046;5.632;2023-01-04T02:46:01;101530;;;9.7;77.8
69405;BME280;57084;52.046;5.632;2023-01-04T02:47:01;101530;;;9.7;77.8
69405;BME280;57084;52.046;5.632;2023-01-04T02:48:00;101530;;;9.7;77.8
69405;BME280;57084;52.046;5.632;2023-01-04T02:49:00;101530;;;9.7;77.7
69405;BME280;57084;52.046;5.632;2023-01-04T02:50:00;101530;;;9.7;77.7
69405;BME280;57084;52.046;5.632;2023-01-04T02:51:00;101510;;;9.7;77.9
69405;BME280;57084;52.046;5.632;2023-01-04T02:52:00;101510;;;9.7;77.9
69405;BME280;57084;52.046;5.632;2023-01-04T02:53:00;101510;;;9.7;77.9
69405;BME280;57084;52.046;5.632;2023-01-04T02:54:01;101510;;;9.7;77.9
69405;BME280;57084;52.046;5.632;2023-01-04T02:55:00;101510;;;9.8;78.0
69405;BME280;57084;52.046;5.632;2023-01-04T02:56:05;101510;;;9.8;78.0
69405;BME280;57084;52.046;5.632;2023-01-04T02:57:04;101510;;;9.8;78.0
69405;BME280;57084;52.046;5.632;2023-01-04T02:58:00;101510;;;9.8;78.0
69405;BME280;57084;52.046;5.632;2023-01-04T02:59:04;101510;;;9.8;77.9
69405;BME280;57084;52.046;5.632;2023-01-04T03:00:03;101510;;;9.8;77.9
69405;BME280;57084;52.046;5.632;2023-01-04T03:01:01;101500;;;9.8;78.1
69405;BME280;57084;52.046;5.632;2023-01-04T03:02:01;101500;;;9.8;78.1
69405;BME280;57084;52.046;5.632;2023-01-04T03:03:05;101500;;;9.8;78.0
69405;BME280;57084;52.046;5.632;2023-01-04T03:04:03;101500;;;9.8;78.0
69405;BME280;57084;52.046;5.632;2023-01-04T03:05:01;101500;;;9.8;78.1
69405;BME280;57084;52.046;5.632;2023-01-04T03:06:01;101500;;;9.8;78.1
69405;BME280;57084;52.046;5.632;2023-01-04T03:07:02;101490;;;9.8;78.1
69405;BME280;57084;52.046;5.632;2023-01-04T03:08:02;101490;;;9.8;78.1
69405;BME280;57084;52.046;5.632;2023-01-04T03:09:02;101500;;;9.8;78.0
69405;BME280;57084;52.046;5.632;2023-01-04T03:10:02;101500;;;9.8;78.0
69405;BME280;57084;52.046;5.632;2023-01-04T03:11:01;101500;;;9.9;78.2
69405;BME280;57084;52.046;5.632;2023-01-04T03:12:01;101500;;;9.9;78.2
69405;BME280;57084;52.046;5.632;2023-01-04T03:13:02;101490;;;9.9;78.2
69405;BME280;57084;52.046;5.632;2023-01-04T03:14:01;101490;;;9.9;78.2
69405;BME280;57084;52.046;5.632;2023-01-04T03:15:02;101500;;;9.9;78.2
69405;BME280;57084;52.046;5.632;2023-01-04T03:16:01;101500;;;9.9;78.2
69405;BME280;57084;52.046;5.632;2023-01-04T03:17:01;101500;;;9.9;78.2
69405;BME280;57084;52.046;5.632;2023-01-04T03:18:01;101500;;;9.9;78.2
69405;BME280;57084;52.046;5.632;2023-01-04T03:19:00;101490;;;9.9;78.2
69405;BME280;57084;52.046;5.632;2023-01-04T03:20:00;101490;;;9.9;78.2
69405;BME280;57084;52.046;5.632;2023-01-04T03:21:00;101490;;;9.9;78.3
69405;BME280;57084;52.046;5.632;2023-01-04T03:22:00;101490;;;9.9;78.3
69405;BME280;57084;52.046;5.632;2023-01-04T03:23:01;101480;;;9.9;78.3
69405;BME280;57084;52.046;5.632;2023-01-04T03:24:00;101480;;;9.9;78.3
69405;BME280;57084;52.046;5.632;2023-01-04T03:25:00;101470;;;9.9;78.3
69405;BME280;57084;52.046;5.632;2023-01-04T03:26:01;101470;;;9.9;78.3
69405;BME280;57084;52.046;5.632;2023-01-04T03:27:01;101480;;;9.9;78.4
69405;BME280;57084;52.046;5.632;2023-01-04T03:28:00;101480;;;9.9;78.4
69405;BME280;57084;52.046;5.632;2023-01-04T03:29:02;101480;;;10.0;78.3
69405;BME280;57084;52.046;5.632;2023-01-04T03:30:01;101480;;;10.0;78.3
69405;BME280;57084;52.046;5.632;2023-01-04T03:31:01;101480;;;10.0;78.4
69405;BME280;57084;52.046;5.632;2023-01-04T03:32:01;101480;;;10.0;78.4
69405;BME280;57084;52.046;5.632;2023-01-04T03:33:00;101480;;;10.0;78.4
69405;BME280;57084;52.046;5.632;2023-01-04T03:34:00;101480;;;10.0;78.4
69405;BME280;57084;52.046;5.632;2023-01-04T03:35:00;101470;;;10.0;78.4
69405;BME280;57084;52.046;5.632;2023-01-04T03:36:02;101470;;;10.0;78.4
69405;BME280;57084;52.046;5.632;2023-01-04T03:37:03;101480;;;10.0;78.5
69405;BME280;57084;52.046;5.632;2023-01-04T03:38:01;101480;;;10.0;78.5
69405;BME280;57084;52.046;5.632;2023-01-04T03:39:01;101470;;;10.0;78.4
69405;BME280;57084;52.046;5.632;2023-01-04T03:40:05;101470;;;10.0;78.4
69405;BME280;57084;52.046;5.632;2023-01-04T03:41:01;101470;;;10.1;78.6
69405;BME280;57084;52.046;5.632;2023-01-04T03:42:03;101470;;;10.1;78.6
69405;BME280;57084;52.046;5.632;2023-01-04T03:43:02;101470;;;10.1;78.6
69405;BME280;57084;52.046;5.632;2023-01-04T03:44:00;101470;;;10.1;78.6
69405;BME280;57084;52.046;5.632;2023-01-04T03:45:03;101470;;;10.1;78.6
69405;BME280;57084;52.046;5.632;2023-01-04T03:46:01;101470;;;10.1;78.6
69405;BME280;57084;52.046;5.632;2023-01-04T03:47:01;101460;;;10.1;78.8
69405;BME280;57084;52.046;5.632;2023-01-04T03:48:02;101460;;;10.1;78.8
69405;BME280;57084;52.046;5.632;2023-01-04T03:49:01;101470;;;10.1;78.7
69405;BME280;57084;52.046;5.632;2023-01-04T03:50:01;101470;;;10.1;78.7
69405;BME280;57084;52.046;5.632;2023-01-04T03:51:05;101460;;;10.1;78.8
69405;BME280;57084;52.046;5.632;2023-01-04T03:52:01;101460;;;10.1;78.8
69405;BME280;57084;52.046;5.632;2023-01-04T03:53:00;101460;;;10.1;78.8
69405;BME280;57084;52.046;5.632;2023-01-04T03:54:02;101460;;;10.1;78.8
69405;BME280;57084;52.046;5.632;2023-01-04T03:55:00;101460;;;10.1;78.7
69405;BME280;57084;52.046;5.632;2023-01-04T03:56:00;101460;;;10.1;78.7
69405;BME280;57084;52.046;5.632;2023-01-04T03:57:00;101460;;;10.1;78.8
69405;BME280;57084;52.046;5.632;2023-01-04T03:58:00;101460;;;10.1;78.8
69405;BME280;57084;52.046;5.632;2023-01-04T03:59:00;101450;;;10.2;78.8
69405;BME280;57084;52.046;5.632;2023-01-04T04:00:02;101450;;;10.2;78.8
69405;BME280;57084;52.046;5.632;2023-01-04T04:01:00;101450;;;10.2;78.9
69405;BME280;57084;52.046;5.632;2023-01-04T04:02:01;101450;;;10.2;78.9
69405;BME280;57084;52.046;5.632;2023-01-04T04:03:00;101450;;;10.2;78.8
69405;BME280;57084;52.046;5.632;2023-01-04T04:04:00;101450;;;10.2;78.8
69405;BME280;57084;52.046;5.632;2023-01-04T04:05:00;101450;;;10.2;78.8
69405;BME280;57084;52.046;5.632;2023-01-04T04:06:00;101450;;;10.2;78.8
69405;BME280;57084;52.046;5.632;2023-01-04T04:07:00;101440;;;10.2;79.0
69405;BME280;57084;52.046;5.632;2023-01-04T04:08:00;101440;;;10.2;79.0
69405;BME280;57084;52.046;5.632;2023-01-04T04:09:00;101440;;;10.2;78.9
69405;BME280;57084;52.046;5.632;2023-01-04T04:10:00;101440;;;10.2;78.9
69405;BME280;57084;52.046;5.632;2023-01-04T04:11:00;101440;;;10.2;79.0
69405;BME280;57084;52.046;5.632;2023-01-04T04:12:00;101440;;;10.2;79.0
69405;BME280;57084;52.046;5.632;2023-01-04T04:13:00;101440;;;10.3;79.0
69405;BME280;57084;52.046;5.632;2023-01-04T04:14:00;101440;;;10.3;79.0
69405;BME280;57084;52.046;5.632;2023-01-04T04:15:00;101450;;;10.3;78.9
69405;BME280;57084;52.046;5.632;2023-01-04T04:16:00;101450;;;10.3;78.9
69405;BME280;57084;52.046;5.632;2023-01-04T04:17:00;101440;;;10.3;79.1
69405;BME280;57084;52.046;5.632;2023-01-04T04:18:00;101440;;;10.3;79.1
69405;BME280;57084;52.046;5.632;2023-01-04T04:19:00;101440;;;10.3;79.0
69405;BME280;57084;52.046;5.632;2023-01-04T04:20:00;101440;;;10.3;79.0
69405;BME280;57084;52.046;5.632;2023-01-04T04:21:00;101430;;;10.4;79.1
69405;BME280;57084;52.046;5.632;2023-01-04T04:22:00;101430;;;10.4;79.1
69405;BME280;57084;52.046;5.632;2023-01-04T04:23:00;101430;;;10.4;79.0
69405;BME280;57084;52.046;5.632;2023-01-04T04:24:00;101430;;;10.4;79.0
69405;BME280;57084;52.046;5.632;2023-01-04T04:25:00;101410;;;10.4;78.9
69405;BME280;57084;52.046;5.632;2023-01-04T04:26:00;101410;;;10.4;78.9
69405;BME280;57084;52.046;5.632;2023-01-04T04:27:00;101420;;;10.4;79.1
69405;BME280;57084;52.046;5.632;2023-01-04T04:28:00;101420;;;10.4;79.1
69405;BME280;57084;52.046;5.632;2023-01-04T04:29:00;101410;;;10.4;79.1
69405;BME280;57084;52.046;5.632;2023-01-04T04:30:00;101410;;;10.4;79.1
69405;BME280;57084;52.046;5.632;2023-01-04T04:31:00;101420;;;10.4;79.2
69405;BME280;57084;52.046;5.632;2023-01-04T04:32:00;101420;;;10.4;79.2
69405;BME280;57084;52.046;5.632;2023-01-04T04:33:00;101420;;;10.4;79.2
69405;BME280;57084;52.046;5.632;2023-01-04T04:34:00;101420;;;10.4;79.2
69405;BME280;57084;52.046;5.632;2023-01-04T04:35:00;101420;;;10.4;79.1
69405;BME280;57084;52.046;5.632;2023-01-04T04:36:00;101420;;;10.4;79.1
69405;BME280;57084;52.046;5.632;2023-01-04T04:37:00;101410;;;10.5;79.2
69405;BME280;57084;52.046;5.632;2023-01-04T04:38:00;101410;;;10.5;79.2
69405;BME280;57084;52.046;5.632;2023-01-04T04:39:00;101400;;;10.5;79.2
69405;BME280;57084;52.046;5.632;2023-01-04T04:40:00;101400;;;10.5;79.2
69405;BME280;57084;52.046;5.632;2023-01-04T04:41:04;101410;;;10.5;79.3
69405;BME280;57084;52.046;5.632;2023-01-04T04:42:00;101410;;;10.5;79.3
69405;BME280;57084;52.046;5.632;2023-01-04T04:43:00;101410;;;10.5;79.3
69405;BME280;57084;52.046;5.632;2023-01-04T04:44:00;101410;;;10.5;79.3
69405;BME280;57084;52.046;5.632;2023-01-04T04:45:00;101400;;;10.5;79.2
69405;BME280;57084;52.046;5.632;2023-01-04T04:46:00;101400;;;10.5;79.2
69405;BME280;57084;52.046;5.632;2023-01-04T04:47:00;101410;;;10.6;79.3
69405;BME280;57084;52.046;5.632;2023-01-04T04:48:00;101410;;;10.6;79.3
69405;BME280;57084;52.046;5.632;2023-01-04T04:49:00;101400;;;10.6;79.3
69405;BME280;57084;52.046;5.632;2023-01-04T04:50:00;101400;;;10.6;79.3
69405;BME280;57084;52.046;5.632;2023-01-04T04:51:00;101390;;;10.6;79.4
69405;BME280;57084;52.046;5.632;2023-01-04T04:52:00;101390;;;10.6;79.4
69405;BME280;57084;52.046;5.632;2023-01-04T04:53:00;101390;;;10.6;79.3
69405;BME280;57084;52.046;5.632;2023-01-04T04:54:00;101390;;;10.6;79.3
69405;BME280;57084;52.046;5.632;2023-01-04T04:55:00;101400;;;10.6;79.3
69405;BME280;57084;52.046;5.632;2023-01-04T04:56:00;101400;;;10.6;79.3
69405;BME280;57084;52.046;5.632;2023-01-04T04:57:00;101390;;;10.6;79.4
69405;BME280;57084;52.046;5.632;2023-01-04T04:58:00;101390;;;10.6;79.4
69405;BME280;57084;52.046;5.632;2023-01-04T04:59:00;101390;;;10.6;79.4
69405;BME280;57084;52.046;5.632;2023-01-04T05:00:00;101390;;;10.6;79.4
69405;BME280;57084;52.046;5.632;2023-01-04T05:01:00;101380;;;10.7;79.4
69405;BME280;57084;52.046;5.632;2023-01-04T05:02:00;101380;;;10.7;79.4
69405;BME280;57084;52.046;5.632;2023-01-04T05:03:00;101380;;;10.7;79.5
69405;BME280;57084;52.046;5.632;2023-01-04T05:04:00;101380;;;10.7;79.5
69405;BME280;57084;52.046;5.632;2023-01-04T05:05:00;101390;;;10.7;79.4
69405;BME280;57084;52.046;5.632;2023-01-04T05:06:00;101390;;;10.7;79.4
69405;BME280;57084;52.046;5.632;2023-01-04T05:07:00;101380;;;10.7;79.5
69405;BME280;57084;52.046;5.632;2023-01-04T05:08:00;101380;;;10.7;79.5
69405;BME280;57084;52.046;5.632;2023-01-04T05:09:00;101380;;;10.7;79.4
69405;BME280;57084;52.046;5.632;2023-01-04T05:10:00;101380;;;10.7;79.4
69405;BME280;57084;52.046;5.632;2023-01-04T05:11:04;101370;;;10.7;79.5
69405;BME280;57084;52.046;5.632;2023-01-04T05:12:00;101370;;;10.7;79.5
69405;BME280;57084;52.046;5.632;2023-01-04T05:13:00;101380;;;10.7;79.5
69405;BME280;57084;52.046;5.632;2023-01-04T05:14:00;101380;;;10.7;79.5
69405;BME280;57084;52.046;5.632;2023-01-04T05:15:00;101380;;;10.7;79.5
69405;BME280;57084;52.046;5.632;2023-01-04T05:16:00;101380;;;10.7;79.5
69405;BME280;57084;52.046;5.632;2023-01-04T05:17:00;101380;;;10.7;79.6
69405;BME280;57084;52.046;5.632;2023-01-04T05:18:00;101380;;;10.7;79.6
69405;BME280;57084;52.046;5.632;2023-01-04T05:19:00;101380;;;10.8;79.7
69405;BME280;57084;52.046;5.632;2023-01-04T05:20:00;101380;;;10.8;79.7
69405;BME280;57084;52.046;5.632;2023-01-04T05:21:00;101380;;;10.8;79.7
69405;BME280;57084;52.046;5.632;2023-01-04T05:22:00;101380;;;10.8;79.7
69405;BME280;57084;52.046;5.632;2023-01-04T05:23:00;101380;;;10.8;79.7
69405;BME280;57084;52.046;5.632;2023-01-04T05:24:00;101380;;;10.8;79.7
69405;BME280;57084;52.046;5.632;2023-01-04T05:25:00;101380;;;10.8;79.7
69405;BME280;57084;52.046;5.632;2023-01-04T05:26:00;101380;;;10.8;79.7
69405;BME280;57084;52.046;5.632;2023-01-04T05:27:00;101370;;;10.8;79.8
69405;BME280;57084;52.046;5.632;2023-01-04T05:28:00;101370;;;10.8;79.8
69405;BME280;57084;52.046;5.632;2023-01-04T05:29:00;101380;;;10.8;79.8
69405;BME280;57084;52.046;5.632;2023-01-04T05:30:00;101380;;;10.8;79.8
69405;BME280;57084;52.046;5.632;2023-01-04T05:31:00;101380;;;10.8;79.8
69405;BME280;57084;52.046;5.632;2023-01-04T05:32:00;101380;;;10.8;79.8
69405;BME280;57084;52.046;5.632;2023-01-04T05:33:00;101370;;;10.8;79.9
69405;BME280;57084;52.046;5.632;2023-01-04T05:34:00;101370;;;10.8;79.9
69405;BME280;57084;52.046;5.632;2023-01-04T05:35:00;101380;;;10.8;79.8
69405;BME280;57084;52.046;5.632;2023-01-04T05:36:01;101380;;;10.8;79.8
69405;BME280;57084;52.046;5.632;2023-01-04T05:37:00;101370;;;10.8;79.9
69405;BME280;57084;52.046;5.632;2023-01-04T05:38:00;101370;;;10.8;79.9
69405;BME280;57084;52.046;5.632;2023-01-04T05:39:00;101370;;;10.8;79.9